Pertusola — IBER — position and weather

sailwx.info

Track history (hours):
 
Tides and Currents Weather Stations Pressure Air Temp Water Temp Dewpoint Dewpoint Depression Visibility Wind Speed Wind Dir Waves Ship Positions

Pertusola

Last reported at 2014-Sep-21 12:16 UTC. Time now 2014-Sep-22 08:16 UTC.
Position N 37°55' W 009°59'.

Length 145 m; draft 6.5 m.

Type: Ship. MMSI: 247399000.

Date/timePositionNaut miles runAvg speedWind from/ knotsBaromVisibWave heightAir tempDewpointWater temp
2014-Sep-21 12:16N 37°55' W 009°59'51511.0
2014-Sep-19 13:29N 45°09' W 003°48'1213.3
2014-Sep-19 12:33N 45°12' W 003°31'3313.2
2014-Sep-19 10:03N 45°20' W 002°46'613.1
2014-Sep-19 09:33N 45°22' W 002°37'1513.4
2014-Sep-19 08:27N 45°26' W 002°17'1213.0
2014-Sep-19 07:33N 45°29' W 002°00'2913.4
2014-Sep-19 05:22N 45°37' W 001°20'1214.8
2014-Sep-19 04:33N 45°35' W 001°03'1816.9
2014-Sep-19 03:30N 45°21' W 000°48'1514.9
2014-Sep-19 02:31N 45°07' W 000°42'10 1.4
2014-Sep-18 19:32N 44°60' W 000°33'49 1.8
2014-Sep-17 16:16N 45°33' W 001°25'0 0.1
2014-Sep-17 15:31N 45°33' W 001°25'19 0.6
2014-Sep-16 10:04N 45°30' W 001°51'912.2
2014-Sep-16 09:21N 45°27' W 002°03'1112.5
2014-Sep-16 08:28N 45°24' W 002°19'1212.6
2014-Sep-16 07:33N 45°20' W 002°34'1712.8
2014-Sep-16 06:11N 45°15' W 002°58'14112.1
2014-Sep-15 18:33N 44°34' W 006°08'1211.9
2014-Sep-15 17:33N 44°28' W 006°23'40712.0
2014-Sep-14 07:32N 38°11' W 009°46'1413.9
2014-Sep-14 06:33N 37°57' W 009°42'1414.2
2014-Sep-14 05:33N 37°44' W 009°38'1614.4
2014-Sep-14 04:28N 37°28' W 009°34'1313.7
2014-Sep-14 03:33N 37°16' W 009°30'1413.5
2014-Sep-14 02:32N 37°03' W 009°26'6212.5
2014-Sep-13 21:34N 36°29' W 008°20'1413.7
2014-Sep-13 20:33N 36°25' W 008°04'1413.7
2014-Sep-13 19:33N 36°21' W 007°48'1513.8
2014-Sep-13 18:27N 36°17' W 007°30'1313.5
2014-Sep-13 17:28N 36°14' W 007°14'1613.5
2014-Sep-13 16:17N 36°09' W 006°55'7513.0
2014-Sep-13 10:30N 36°02' W 005°22'22113.7
2014-Sep-12 18:22N 36°26' W 000°50'1314.0
2014-Sep-12 17:26N 36°26' W 000°34'1311.9
2014-Sep-12 16:19N 36°17' W 000°22'2514.1
2014-Sep-12 14:32N 35°52' W 000°15'3 0.2
2014-Sep-11 18:17N 35°49' W 000°16'  
Track history (hours):
 
Tides and Currents Weather Stations Pressure Air Temp Water Temp Dewpoint Dewpoint Depression Visibility Wind Speed Wind Dir Waves Ship Positions

Pertusola

Last reported at 2014-Sep-21 12:16 UTC. Time now 2014-Sep-22 08:16 UTC.
Position N 37°55' W 009°59'.

Length 145 m; draft 6.5 m.

Type: Ship. MMSI: 247399000.

Date/timePositionNaut miles runAvg speedWind from/ knotsBaromVisibWave heightAir tempDewpointWater temp
2014-Sep-21 12:16N 37°55' W 009°59'51511.0
2014-Sep-19 13:29N 45°09' W 003°48'1213.3
2014-Sep-19 12:33N 45°12' W 003°31'3313.2
2014-Sep-19 10:03N 45°20' W 002°46'613.1
2014-Sep-19 09:33N 45°22' W 002°37'1513.4
2014-Sep-19 08:27N 45°26' W 002°17'1213.0
2014-Sep-19 07:33N 45°29' W 002°00'2913.4
2014-Sep-19 05:22N 45°37' W 001°20'1214.8
2014-Sep-19 04:33N 45°35' W 001°03'1816.9
2014-Sep-19 03:30N 45°21' W 000°48'1514.9
2014-Sep-19 02:31N 45°07' W 000°42'10 1.4
2014-Sep-18 19:32N 44°60' W 000°33'49 1.8
2014-Sep-17 16:16N 45°33' W 001°25'0 0.1
2014-Sep-17 15:31N 45°33' W 001°25'19 0.6
2014-Sep-16 10:04N 45°30' W 001°51'912.2
2014-Sep-16 09:21N 45°27' W 002°03'1112.5
2014-Sep-16 08:28N 45°24' W 002°19'1212.6
2014-Sep-16 07:33N 45°20' W 002°34'1712.8
2014-Sep-16 06:11N 45°15' W 002°58'14112.1
2014-Sep-15 18:33N 44°34' W 006°08'1211.9
2014-Sep-15 17:33N 44°28' W 006°23'40712.0
2014-Sep-14 07:32N 38°11' W 009°46'1413.9
2014-Sep-14 06:33N 37°57' W 009°42'1414.2
2014-Sep-14 05:33N 37°44' W 009°38'1614.4
2014-Sep-14 04:28N 37°28' W 009°34'1313.7
2014-Sep-14 03:33N 37°16' W 009°30'1413.5
2014-Sep-14 02:32N 37°03' W 009°26'6212.5
2014-Sep-13 21:34N 36°29' W 008°20'1413.7
2014-Sep-13 20:33N 36°25' W 008°04'1413.7
2014-Sep-13 19:33N 36°21' W 007°48'1513.8
2014-Sep-13 18:27N 36°17' W 007°30'1313.5
2014-Sep-13 17:28N 36°14' W 007°14'1613.5
2014-Sep-13 16:17N 36°09' W 006°55'7513.0
2014-Sep-13 10:30N 36°02' W 005°22'22113.7
2014-Sep-12 18:22N 36°26' W 000°50'1314.0
2014-Sep-12 17:26N 36°26' W 000°34'1311.9
2014-Sep-12 16:19N 36°17' W 000°22'2514.1
2014-Sep-12 14:32N 35°52' W 000°15'3 0.2
2014-Sep-11 18:17N 35°49' W 000°16'  

Dump ship's entire track history